sensor_id;sensor_type;location;lat;lon;timestamp;P1;durP1;ratioP1;P2;durP2;ratioP2
20956;SDS011;10637;47.970;7.830;2023-05-14T00:01:56;11.47;;;4.93;;
20956;SDS011;10637;47.970;7.830;2023-05-14T00:06:57;10.83;;;5.67;;
20956;SDS011;10637;47.970;7.830;2023-05-14T00:11:59;10.73;;;5.60;;
20956;SDS011;10637;47.970;7.830;2023-05-14T00:17:01;10.80;;;5.30;;
20956;SDS011;10637;47.970;7.830;2023-05-14T00:22:03;9.87;;;5.70;;
20956;SDS011;10637;47.970;7.830;2023-05-14T00:27:05;10.13;;;5.73;;
20956;SDS011;10637;47.970;7.830;2023-05-14T00:32:07;11.10;;;6.70;;
20956;SDS011;10637;47.970;7.830;2023-05-14T00:37:09;11.17;;;6.27;;
20956;SDS011;10637;47.970;7.830;2023-05-14T00:42:10;12.00;;;5.77;;
20956;SDS011;10637;47.970;7.830;2023-05-14T00:47:12;15.00;;;6.00;;
20956;SDS011;10637;47.970;7.830;2023-05-14T00:52:14;11.33;;;6.10;;
20956;SDS011;10637;47.970;7.830;2023-05-14T00:57:17;10.03;;;5.47;;
20956;SDS011;10637;47.970;7.830;2023-05-14T01:02:19;11.17;;;6.17;;
20956;SDS011;10637;47.970;7.830;2023-05-14T01:07:57;11.20;;;6.50;;
20956;SDS011;10637;47.970;7.830;2023-05-14T01:12:55;10.33;;;5.77;;
20956;SDS011;10637;47.970;7.830;2023-05-14T01:18:06;11.83;;;6.47;;
20956;SDS011;10637;47.970;7.830;2023-05-14T01:23:14;11.37;;;6.57;;
20956;SDS011;10637;47.970;7.830;2023-05-14T01:28:17;12.73;;;6.37;;
20956;SDS011;10637;47.970;7.830;2023-05-14T01:33:20;11.53;;;6.17;;
20956;SDS011;10637;47.970;7.830;2023-05-14T01:38:25;11.20;;;6.17;;
20956;SDS011;10637;47.970;7.830;2023-05-14T01:43:30;12.80;;;6.50;;
20956;SDS011;10637;47.970;7.830;2023-05-14T01:48:32;12.13;;;6.40;;
20956;SDS011;10637;47.970;7.830;2023-05-14T01:53:34;13.13;;;5.77;;
20956;SDS011;10637;47.970;7.830;2023-05-14T01:58:35;12.67;;;6.60;;
20956;SDS011;10637;47.970;7.830;2023-05-14T02:03:37;9.73;;;5.63;;
20956;SDS011;10637;47.970;7.830;2023-05-14T02:08:39;12.87;;;6.90;;
20956;SDS011;10637;47.970;7.830;2023-05-14T02:13:41;13.20;;;6.17;;
20956;SDS011;10637;47.970;7.830;2023-05-14T02:18:42;11.17;;;6.43;;
20956;SDS011;10637;47.970;7.830;2023-05-14T02:23:44;10.07;;;6.23;;
20956;SDS011;10637;47.970;7.830;2023-05-14T02:28:48;10.20;;;5.70;;
20956;SDS011;10637;47.970;7.830;2023-05-14T02:33:50;9.03;;;5.03;;
20956;SDS011;10637;47.970;7.830;2023-05-14T02:38:52;10.60;;;5.80;;
20956;SDS011;10637;47.970;7.830;2023-05-14T02:43:56;16.77;;;5.63;;
20956;SDS011;10637;47.970;7.830;2023-05-14T02:48:57;8.90;;;5.07;;
20956;SDS011;10637;47.970;7.830;2023-05-14T02:53:59;9.60;;;4.90;;
20956;SDS011;10637;47.970;7.830;2023-05-14T02:59:01;8.80;;;4.70;;
20956;SDS011;10637;47.970;7.830;2023-05-14T03:04:03;12.50;;;4.90;;
20956;SDS011;10637;47.970;7.830;2023-05-14T03:09:05;11.33;;;5.40;;
20956;SDS011;10637;47.970;7.830;2023-05-14T03:14:07;8.90;;;4.20;;
20956;SDS011;10637;47.970;7.830;2023-05-14T03:19:09;9.20;;;4.70;;
20956;SDS011;10637;47.970;7.830;2023-05-14T03:24:11;8.93;;;4.50;;
20956;SDS011;10637;47.970;7.830;2023-05-14T03:29:13;9.00;;;4.30;;
20956;SDS011;10637;47.970;7.830;2023-05-14T03:34:18;8.37;;;4.40;;
20956;SDS011;10637;47.970;7.830;2023-05-14T03:39:19;9.37;;;4.23;;
20956;SDS011;10637;47.970;7.830;2023-05-14T03:44:21;9.10;;;4.70;;
20956;SDS011;10637;47.970;7.830;2023-05-14T03:49:23;9.97;;;5.20;;
20956;SDS011;10637;47.970;7.830;2023-05-14T03:54:25;9.10;;;5.00;;
20956;SDS011;10637;47.970;7.830;2023-05-14T03:59:27;9.10;;;4.70;;
20956;SDS011;10637;47.970;7.830;2023-05-14T04:04:29;8.83;;;4.93;;
20956;SDS011;10637;47.970;7.830;2023-05-14T04:09:31;8.50;;;4.83;;
20956;SDS011;10637;47.970;7.830;2023-05-14T04:14:33;9.47;;;4.90;;
20956;SDS011;10637;47.970;7.830;2023-05-14T04:19:34;12.83;;;5.53;;
20956;SDS011;10637;47.970;7.830;2023-05-14T04:24:36;10.30;;;4.70;;
20956;SDS011;10637;47.970;7.830;2023-05-14T04:29:38;9.87;;;5.53;;
20956;SDS011;10637;47.970;7.830;2023-05-14T04:34:39;11.00;;;5.30;;
20956;SDS011;10637;47.970;7.830;2023-05-14T04:39:41;10.43;;;5.17;;
20956;SDS011;10637;47.970;7.830;2023-05-14T04:44:43;10.70;;;5.50;;
20956;SDS011;10637;47.970;7.830;2023-05-14T04:49:45;9.47;;;5.07;;
20956;SDS011;10637;47.970;7.830;2023-05-14T04:54:47;10.33;;;5.50;;
20956;SDS011;10637;47.970;7.830;2023-05-14T04:59:49;13.13;;;6.07;;
20956;SDS011;10637;47.970;7.830;2023-05-14T05:04:51;10.07;;;5.83;;
20956;SDS011;10637;47.970;7.830;2023-05-14T05:09:52;10.33;;;5.77;;
20956;SDS011;10637;47.970;7.830;2023-05-14T05:14:57;10.27;;;5.53;;
20956;SDS011;10637;47.970;7.830;2023-05-14T05:19:59;14.37;;;5.90;;
20956;SDS011;10637;47.970;7.830;2023-05-14T05:25:01;12.63;;;6.10;;
20956;SDS011;10637;47.970;7.830;2023-05-14T05:30:06;10.67;;;6.27;;
20956;SDS011;10637;47.970;7.830;2023-05-14T05:35:08;11.43;;;6.43;;
20956;SDS011;10637;47.970;7.830;2023-05-14T05:40:10;12.10;;;6.50;;
20956;SDS011;10637;47.970;7.830;2023-05-14T05:45:14;11.60;;;6.10;;
20956;SDS011;10637;47.970;7.830;2023-05-14T05:50:16;12.47;;;6.60;;
20956;SDS011;10637;47.970;7.830;2023-05-14T05:55:20;10.47;;;6.07;;
20956;SDS011;10637;47.970;7.830;2023-05-14T06:00:21;12.37;;;6.70;;
20956;SDS011;10637;47.970;7.830;2023-05-14T06:05:25;10.63;;;6.30;;
20956;SDS011;10637;47.970;7.830;2023-05-14T06:10:28;12.40;;;6.70;;
20956;SDS011;10637;47.970;7.830;2023-05-14T06:15:30;11.67;;;6.93;;
20956;SDS011;10637;47.970;7.830;2023-05-14T06:20:32;13.37;;;8.13;;
20956;SDS011;10637;47.970;7.830;2023-05-14T06:25:34;13.90;;;7.93;;
20956;SDS011;10637;47.970;7.830;2023-05-14T06:30:36;14.97;;;7.60;;
20956;SDS011;10637;47.970;7.830;2023-05-14T06:35:38;13.90;;;7.10;;
20956;SDS011;10637;47.970;7.830;2023-05-14T06:40:39;11.33;;;6.90;;
20956;SDS011;10637;47.970;7.830;2023-05-14T06:45:41;12.93;;;7.60;;
20956;SDS011;10637;47.970;7.830;2023-05-14T06:50:43;12.60;;;8.07;;
20956;SDS011;10637;47.970;7.830;2023-05-14T06:55:46;12.63;;;7.83;;
20956;SDS011;10637;47.970;7.830;2023-05-14T07:00:48;13.87;;;7.87;;
20956;SDS011;10637;47.970;7.830;2023-05-14T07:05:50;13.90;;;7.93;;
20956;SDS011;10637;47.970;7.830;2023-05-14T07:10:52;12.73;;;8.00;;
20956;SDS011;10637;47.970;7.830;2023-05-14T07:15:53;12.50;;;8.23;;
20956;SDS011;10637;47.970;7.830;2023-05-14T07:20:58;13.43;;;8.60;;
20956;SDS011;10637;47.970;7.830;2023-05-14T07:26:01;15.00;;;8.17;;
20956;SDS011;10637;47.970;7.830;2023-05-14T07:31:03;14.03;;;8.13;;
20956;SDS011;10637;47.970;7.830;2023-05-14T07:36:09;13.60;;;8.13;;
20956;SDS011;10637;47.970;7.830;2023-05-14T07:41:11;12.07;;;7.90;;
20956;SDS011;10637;47.970;7.830;2023-05-14T07:46:13;13.43;;;8.60;;
20956;SDS011;10637;47.970;7.830;2023-05-14T07:51:15;13.27;;;8.30;;
20956;SDS011;10637;47.970;7.830;2023-05-14T07:56:17;15.90;;;8.93;;
20956;SDS011;10637;47.970;7.830;2023-05-14T08:01:18;13.73;;;9.07;;
20956;SDS011;10637;47.970;7.830;2023-05-14T08:06:20;12.60;;;8.03;;
20956;SDS011;10637;47.970;7.830;2023-05-14T08:11:23;11.63;;;7.20;;
20956;SDS011;10637;47.970;7.830;2023-05-14T08:16:26;10.63;;;7.27;;
20956;SDS011;10637;47.970;7.830;2023-05-14T08:21:28;14.17;;;8.10;;
20956;SDS011;10637;47.970;7.830;2023-05-14T08:26:30;12.30;;;7.83;;
20956;SDS011;10637;47.970;7.830;2023-05-14T08:31:31;13.50;;;7.33;;
20956;SDS011;10637;47.970;7.830;2023-05-14T08:36:33;11.83;;;7.83;;
20956;SDS011;10637;47.970;7.830;2023-05-14T08:41:35;11.13;;;7.17;;
20956;SDS011;10637;47.970;7.830;2023-05-14T08:46:40;13.23;;;7.10;;
20956;SDS011;10637;47.970;7.830;2023-05-14T08:51:45;12.03;;;7.03;;
20956;SDS011;10637;47.970;7.830;2023-05-14T08:56:48;14.13;;;7.97;;
20956;SDS011;10637;47.970;7.830;2023-05-14T09:01:52;12.03;;;7.70;;
20956;SDS011;10637;47.970;7.830;2023-05-14T09:06:56;12.97;;;7.87;;
20956;SDS011;10637;47.970;7.830;2023-05-14T09:12:00;11.37;;;7.17;;
20956;SDS011;10637;47.970;7.830;2023-05-14T09:17:02;10.57;;;6.53;;
20956;SDS011;10637;47.970;7.830;2023-05-14T09:22:05;12.17;;;7.93;;
20956;SDS011;10637;47.970;7.830;2023-05-14T09:27:14;11.83;;;8.00;;
20956;SDS011;10637;47.970;7.830;2023-05-14T09:32:20;13.03;;;8.27;;
20956;SDS011;10637;47.970;7.830;2023-05-14T09:37:21;13.77;;;8.57;;
20956;SDS011;10637;47.970;7.830;2023-05-14T09:42:26;13.37;;;8.57;;
20956;SDS011;10637;47.970;7.830;2023-05-14T09:47:28;13.73;;;8.33;;
20956;SDS011;10637;47.970;7.830;2023-05-14T09:52:30;13.13;;;7.93;;
20956;SDS011;10637;47.970;7.830;2023-05-14T09:57:32;13.20;;;8.37;;
20956;SDS011;10637;47.970;7.830;2023-05-14T10:02:35;11.27;;;7.20;;
20956;SDS011;10637;47.970;7.830;2023-05-14T10:07:39;10.93;;;7.17;;
20956;SDS011;10637;47.970;7.830;2023-05-14T10:12:56;10.87;;;6.57;;
20956;SDS011;10637;47.970;7.830;2023-05-14T10:18:02;12.93;;;6.37;;
20956;SDS011;10637;47.970;7.830;2023-05-14T10:23:08;10.87;;;6.03;;
20956;SDS011;10637;47.970;7.830;2023-05-14T10:28:10;9.40;;;4.93;;
20956;SDS011;10637;47.970;7.830;2023-05-14T10:33:12;9.10;;;4.93;;
20956;SDS011;10637;47.970;7.830;2023-05-14T10:38:16;9.00;;;5.13;;
20956;SDS011;10637;47.970;7.830;2023-05-14T10:43:24;11.60;;;6.53;;
20956;SDS011;10637;47.970;7.830;2023-05-14T10:48:29;11.70;;;6.27;;
20956;SDS011;10637;47.970;7.830;2023-05-14T10:53:35;11.43;;;6.03;;
20956;SDS011;10637;47.970;7.830;2023-05-14T10:58:39;10.43;;;6.03;;
20956;SDS011;10637;47.970;7.830;2023-05-14T11:03:43;10.90;;;6.03;;
20956;SDS011;10637;47.970;7.830;2023-05-14T11:08:47;9.33;;;5.20;;
20956;SDS011;10637;47.970;7.830;2023-05-14T11:13:52;10.70;;;5.10;;
20956;SDS011;10637;47.970;7.830;2023-05-14T11:19:01;10.70;;;6.47;;
20956;SDS011;10637;47.970;7.830;2023-05-14T11:24:04;13.83;;;7.00;;
20956;SDS011;10637;47.970;7.830;2023-05-14T11:29:07;11.37;;;5.63;;
20956;SDS011;10637;47.970;7.830;2023-05-14T11:34:10;11.10;;;5.47;;
20956;SDS011;10637;47.970;7.830;2023-05-14T11:39:18;10.77;;;4.73;;
20956;SDS011;10637;47.970;7.830;2023-05-14T11:44:20;9.57;;;4.77;;
20956;SDS011;10637;47.970;7.830;2023-05-14T11:49:23;10.57;;;4.43;;
20956;SDS011;10637;47.970;7.830;2023-05-14T11:54:28;10.57;;;4.50;;
20956;SDS011;10637;47.970;7.830;2023-05-14T11:59:30;8.53;;;4.07;;
20956;SDS011;10637;47.970;7.830;2023-05-14T12:04:32;7.87;;;3.50;;
20956;SDS011;10637;47.970;7.830;2023-05-14T12:09:35;9.60;;;4.60;;
20956;SDS011;10637;47.970;7.830;2023-05-14T12:14:40;9.60;;;4.90;;
20956;SDS011;10637;47.970;7.830;2023-05-14T12:19:43;8.60;;;4.50;;
20956;SDS011;10637;47.970;7.830;2023-05-14T12:24:52;9.73;;;4.93;;
20956;SDS011;10637;47.970;7.830;2023-05-14T12:35:20;7.90;;;3.60;;
20956;SDS011;10637;47.970;7.830;2023-05-14T12:40:23;7.57;;;3.53;;
20956;SDS011;10637;47.970;7.830;2023-05-14T12:45:25;7.20;;;3.03;;
20956;SDS011;10637;47.970;7.830;2023-05-14T12:50:27;7.00;;;2.87;;
20956;SDS011;10637;47.970;7.830;2023-05-14T12:55:29;8.27;;;3.10;;
20956;SDS011;10637;47.970;7.830;2023-05-14T13:00:31;7.63;;;3.17;;
20956;SDS011;10637;47.970;7.830;2023-05-14T13:05:33;7.97;;;3.00;;
20956;SDS011;10637;47.970;7.830;2023-05-14T13:10:35;7.87;;;3.10;;
20956;SDS011;10637;47.970;7.830;2023-05-14T13:15:37;6.93;;;2.90;;
20956;SDS011;10637;47.970;7.830;2023-05-14T13:20:38;6.77;;;2.30;;
20956;SDS011;10637;47.970;7.830;2023-05-14T13:25:43;8.87;;;3.07;;
20956;SDS011;10637;47.970;7.830;2023-05-14T13:31:01;8.00;;;3.17;;
20956;SDS011;10637;47.970;7.830;2023-05-14T13:36:05;9.00;;;4.20;;
20956;SDS011;10637;47.970;7.830;2023-05-14T13:41:08;8.67;;;3.23;;
20956;SDS011;10637;47.970;7.830;2023-05-14T13:46:10;8.97;;;3.37;;
20956;SDS011;10637;47.970;7.830;2023-05-14T13:51:11;8.67;;;3.17;;
20956;SDS011;10637;47.970;7.830;2023-05-14T13:56:13;7.97;;;2.87;;
20956;SDS011;10637;47.970;7.830;2023-05-14T14:01:15;6.90;;;2.90;;
20956;SDS011;10637;47.970;7.830;2023-05-14T14:06:17;6.73;;;2.70;;
20956;SDS011;10637;47.970;7.830;2023-05-14T14:11:19;6.67;;;2.60;;
20956;SDS011;10637;47.970;7.830;2023-05-14T14:16:20;7.57;;;3.10;;
20956;SDS011;10637;47.970;7.830;2023-05-14T14:21:22;7.53;;;3.00;;
20956;SDS011;10637;47.970;7.830;2023-05-14T14:26:24;9.43;;;3.10;;
20956;SDS011;10637;47.970;7.830;2023-05-14T14:31:28;7.37;;;2.93;;
20956;SDS011;10637;47.970;7.830;2023-05-14T14:36:29;7.30;;;2.80;;
20956;SDS011;10637;47.970;7.830;2023-05-14T14:41:31;7.50;;;2.90;;
20956;SDS011;10637;47.970;7.830;2023-05-14T14:46:33;7.10;;;2.70;;
20956;SDS011;10637;47.970;7.830;2023-05-14T14:51:35;6.77;;;2.57;;
20956;SDS011;10637;47.970;7.830;2023-05-14T14:56:37;6.80;;;2.40;;
20956;SDS011;10637;47.970;7.830;2023-05-14T15:01:39;6.97;;;2.63;;
20956;SDS011;10637;47.970;7.830;2023-05-14T15:06:41;7.83;;;2.70;;
20956;SDS011;10637;47.970;7.830;2023-05-14T15:11:43;7.00;;;2.50;;
20956;SDS011;10637;47.970;7.830;2023-05-14T15:16:45;6.90;;;2.40;;
20956;SDS011;10637;47.970;7.830;2023-05-14T15:21:51;6.60;;;2.40;;
20956;SDS011;10637;47.970;7.830;2023-05-14T15:26:53;6.77;;;2.50;;
20956;SDS011;10637;47.970;7.830;2023-05-14T15:31:55;6.27;;;2.40;;
20956;SDS011;10637;47.970;7.830;2023-05-14T15:36:57;20.60;;;16.60;;
20956;SDS011;10637;47.970;7.830;2023-05-14T15:41:59;7.37;;;2.80;;
20956;SDS011;10637;47.970;7.830;2023-05-14T15:47:01;7.60;;;2.80;;
20956;SDS011;10637;47.970;7.830;2023-05-14T15:52:03;20.37;;;11.67;;
20956;SDS011;10637;47.970;7.830;2023-05-14T15:57:05;7.70;;;3.17;;
20956;SDS011;10637;47.970;7.830;2023-05-14T16:02:07;9.10;;;3.60;;
20956;SDS011;10637;47.970;7.830;2023-05-14T16:07:09;7.67;;;3.30;;
20956;SDS011;10637;47.970;7.830;2023-05-14T16:12:12;8.27;;;2.80;;
20956;SDS011;10637;47.970;7.830;2023-05-14T16:17:14;7.07;;;2.80;;
20956;SDS011;10637;47.970;7.830;2023-05-14T16:22:16;7.67;;;3.10;;
20956;SDS011;10637;47.970;7.830;2023-05-14T16:27:18;7.03;;;2.90;;
20956;SDS011;10637;47.970;7.830;2023-05-14T16:32:19;7.57;;;2.70;;
20956;SDS011;10637;47.970;7.830;2023-05-14T16:37:22;7.63;;;3.00;;
20956;SDS011;10637;47.970;7.830;2023-05-14T16:42:24;6.40;;;2.47;;
20956;SDS011;10637;47.970;7.830;2023-05-14T16:47:26;7.50;;;2.50;;
20956;SDS011;10637;47.970;7.830;2023-05-14T16:52:28;7.53;;;2.70;;
20956;SDS011;10637;47.970;7.830;2023-05-14T16:57:31;6.63;;;2.70;;
20956;SDS011;10637;47.970;7.830;2023-05-14T17:02:32;7.20;;;2.67;;
20956;SDS011;10637;47.970;7.830;2023-05-14T17:07:35;7.83;;;2.80;;
20956;SDS011;10637;47.970;7.830;2023-05-14T17:12:38;6.70;;;2.60;;
20956;SDS011;10637;47.970;7.830;2023-05-14T17:17:40;18.07;;;8.67;;
20956;SDS011;10637;47.970;7.830;2023-05-14T17:22:42;7.13;;;2.83;;
20956;SDS011;10637;47.970;7.830;2023-05-14T17:27:44;7.37;;;2.70;;
20956;SDS011;10637;47.970;7.830;2023-05-14T17:32:45;7.17;;;3.10;;
20956;SDS011;10637;47.970;7.830;2023-05-14T17:37:51;7.23;;;2.80;;
20956;SDS011;10637;47.970;7.830;2023-05-14T17:42:52;7.43;;;2.90;;
20956;SDS011;10637;47.970;7.830;2023-05-14T17:47:54;7.70;;;2.80;;
20956;SDS011;10637;47.970;7.830;2023-05-14T17:52:56;7.23;;;2.33;;
20956;SDS011;10637;47.970;7.830;2023-05-14T17:57:58;5.93;;;2.10;;
20956;SDS011;10637;47.970;7.830;2023-05-14T18:03:00;6.20;;;2.00;;
20956;SDS011;10637;47.970;7.830;2023-05-14T18:08:01;7.23;;;2.10;;
20956;SDS011;10637;47.970;7.830;2023-05-14T18:13:03;8.00;;;2.73;;
20956;SDS011;10637;47.970;7.830;2023-05-14T18:18:05;8.93;;;3.73;;
20956;SDS011;10637;47.970;7.830;2023-05-14T18:23:07;6.40;;;2.20;;
20956;SDS011;10637;47.970;7.830;2023-05-14T18:28:09;7.77;;;2.40;;
20956;SDS011;10637;47.970;7.830;2023-05-14T18:33:11;10.43;;;4.27;;
20956;SDS011;10637;47.970;7.830;2023-05-14T18:38:13;11.07;;;4.80;;
20956;SDS011;10637;47.970;7.830;2023-05-14T18:43:17;8.80;;;3.00;;
20956;SDS011;10637;47.970;7.830;2023-05-14T18:48:19;6.70;;;2.73;;
20956;SDS011;10637;47.970;7.830;2023-05-14T18:53:21;7.83;;;3.13;;
20956;SDS011;10637;47.970;7.830;2023-05-14T18:58:23;8.30;;;3.50;;
20956;SDS011;10637;47.970;7.830;2023-05-14T19:03:25;11.40;;;3.93;;
20956;SDS011;10637;47.970;7.830;2023-05-14T19:08:27;12.07;;;3.20;;
20956;SDS011;10637;47.970;7.830;2023-05-14T19:13:29;8.17;;;3.17;;
20956;SDS011;10637;47.970;7.830;2023-05-14T19:18:30;9.00;;;3.20;;
20956;SDS011;10637;47.970;7.830;2023-05-14T19:23:32;7.57;;;3.10;;
20956;SDS011;10637;47.970;7.830;2023-05-14T19:28:34;9.77;;;4.03;;
20956;SDS011;10637;47.970;7.830;2023-05-14T19:33:38;10.73;;;4.43;;
20956;SDS011;10637;47.970;7.830;2023-05-14T19:38:39;9.20;;;3.93;;
20956;SDS011;10637;47.970;7.830;2023-05-14T19:43:41;9.97;;;4.13;;
20956;SDS011;10637;47.970;7.830;2023-05-14T19:48:43;9.00;;;3.93;;
20956;SDS011;10637;47.970;7.830;2023-05-14T19:53:45;9.40;;;5.00;;
20956;SDS011;10637;47.970;7.830;2023-05-14T19:58:46;11.07;;;4.70;;
20956;SDS011;10637;47.970;7.830;2023-05-14T20:03:48;8.50;;;4.30;;
20956;SDS011;10637;47.970;7.830;2023-05-14T20:08:50;11.07;;;5.10;;
20956;SDS011;10637;47.970;7.830;2023-05-14T20:13:52;9.70;;;4.70;;
20956;SDS011;10637;47.970;7.830;2023-05-14T20:18:54;10.40;;;5.30;;
20956;SDS011;10637;47.970;7.830;2023-05-14T20:23:56;11.33;;;4.53;;
20956;SDS011;10637;47.970;7.830;2023-05-14T20:28:58;10.63;;;4.63;;
20956;SDS011;10637;47.970;7.830;2023-05-14T20:34:00;9.73;;;4.97;;
20956;SDS011;10637;47.970;7.830;2023-05-14T20:39:01;11.40;;;4.80;;
20956;SDS011;10637;47.970;7.830;2023-05-14T20:44:06;10.83;;;5.20;;
20956;SDS011;10637;47.970;7.830;2023-05-14T20:49:08;13.73;;;5.80;;
20956;SDS011;10637;47.970;7.830;2023-05-14T20:54:09;11.80;;;5.20;;
20956;SDS011;10637;47.970;7.830;2023-05-14T20:59:11;10.00;;;5.50;;
20956;SDS011;10637;47.970;7.830;2023-05-14T21:04:13;10.63;;;5.03;;
20956;SDS011;10637;47.970;7.830;2023-05-14T21:09:15;11.10;;;6.33;;
20956;SDS011;10637;47.970;7.830;2023-05-14T21:14:17;12.37;;;5.87;;
20956;SDS011;10637;47.970;7.830;2023-05-14T21:19:19;11.47;;;5.83;;
20956;SDS011;10637;47.970;7.830;2023-05-14T21:24:22;10.77;;;6.07;;
20956;SDS011;10637;47.970;7.830;2023-05-14T21:29:24;12.03;;;6.00;;
20956;SDS011;10637;47.970;7.830;2023-05-14T21:34:26;11.63;;;6.37;;
20956;SDS011;10637;47.970;7.830;2023-05-14T21:39:30;11.30;;;4.97;;
20956;SDS011;10637;47.970;7.830;2023-05-14T21:44:32;11.17;;;5.07;;
20956;SDS011;10637;47.970;7.830;2023-05-14T21:49:34;9.87;;;5.20;;
20956;SDS011;10637;47.970;7.830;2023-05-14T21:54:35;9.30;;;5.13;;
20956;SDS011;10637;47.970;7.830;2023-05-14T21:59:37;10.83;;;5.67;;
20956;SDS011;10637;47.970;7.830;2023-05-14T22:04:39;9.50;;;5.00;;
20956;SDS011;10637;47.970;7.830;2023-05-14T22:09:41;13.67;;;5.53;;
20956;SDS011;10637;47.970;7.830;2023-05-14T22:14:42;9.50;;;5.00;;
20956;SDS011;10637;47.970;7.830;2023-05-14T22:19:44;10.67;;;5.23;;
20956;SDS011;10637;47.970;7.830;2023-05-14T22:24:46;11.50;;;5.37;;
20956;SDS011;10637;47.970;7.830;2023-05-14T22:29:48;9.80;;;4.90;;
20956;SDS011;10637;47.970;7.830;2023-05-14T22:34:50;13.10;;;4.73;;
20956;SDS011;10637;47.970;7.830;2023-05-14T22:39:51;8.97;;;4.67;;
20956;SDS011;10637;47.970;7.830;2023-05-14T22:44:53;8.47;;;4.10;;
20956;SDS011;10637;47.970;7.830;2023-05-14T22:49:55;11.03;;;3.60;;
20956;SDS011;10637;47.970;7.830;2023-05-14T22:54:57;6.90;;;2.80;;
20956;SDS011;10637;47.970;7.830;2023-05-14T22:59:58;7.63;;;2.97;;
20956;SDS011;10637;47.970;7.830;2023-05-14T23:05:00;9.27;;;3.07;;
20956;SDS011;10637;47.970;7.830;2023-05-14T23:10:02;8.43;;;3.13;;
20956;SDS011;10637;47.970;7.830;2023-05-14T23:15:05;7.60;;;2.97;;
20956;SDS011;10637;47.970;7.830;2023-05-14T23:20:07;9.60;;;3.10;;
20956;SDS011;10637;47.970;7.830;2023-05-14T23:25:15;7.63;;;3.20;;
20956;SDS011;10637;47.970;7.830;2023-05-14T23:30:17;7.70;;;3.37;;
20956;SDS011;10637;47.970;7.830;2023-05-14T23:35:19;8.87;;;3.53;;
20956;SDS011;10637;47.970;7.830;2023-05-14T23:40:20;9.43;;;3.20;;
20956;SDS011;10637;47.970;7.830;2023-05-14T23:45:22;8.43;;;4.10;;
20956;SDS011;10637;47.970;7.830;2023-05-14T23:50:24;9.77;;;4.30;;
20956;SDS011;10637;47.970;7.830;2023-05-14T23:55:26;7.90;;;3.90;;
